Terminal Aerodrome Forecast
Issued by NWS

Home | Current Version | Previous Version | Text Only | Print | Product List | Glossary On
Versions: 1 2 3 4 5 6 7 8 9 10 11 12 13 14 15 16 17 18 19 20 21 22 23 24 25 26 27 28 29 30
000
FTUS46 KOTX 181021 AAB
TAFCOE
TAF AMD
KCOE 181021Z 1810/1906 05003KT 6SM BR BKN030 OVC035
     FM181300 17005KT 3SM BR OVC015
     FM182200 16005KT P6SM SCT025 OVC040
     FM190300 10007KT P6SM OVC040
      AMD LTD TO CLD AND VIS=

USA.gov is the U.S. government's official web portal to all federal, state and local government web resources and services.